sensor_id;sensor_type;location;lat;lon;timestamp;P1;durP1;ratioP1;P2;durP2;ratioP2
78549;SDS011;68091;52.130;5.570;2023-04-03T00:01:02;3.47;;;2.20;;
78549;SDS011;68091;52.130;5.570;2023-04-03T00:03:28;4.53;;;2.30;;
78549;SDS011;68091;52.130;5.570;2023-04-03T00:05:54;3.08;;;1.80;;
78549;SDS011;68091;52.130;5.570;2023-04-03T00:08:20;4.10;;;1.92;;
78549;SDS011;68091;52.130;5.570;2023-04-03T00:10:45;4.03;;;1.90;;
78549;SDS011;68091;52.130;5.570;2023-04-03T00:13:12;6.35;;;2.10;;
78549;SDS011;68091;52.130;5.570;2023-04-03T00:15:38;4.68;;;2.35;;
78549;SDS011;68091;52.130;5.570;2023-04-03T00:18:04;6.30;;;2.10;;
78549;SDS011;68091;52.130;5.570;2023-04-03T00:20:33;4.50;;;2.20;;
78549;SDS011;68091;52.130;5.570;2023-04-03T00:22:59;2.10;;;1.50;;
78549;SDS011;68091;52.130;5.570;2023-04-03T00:25:26;7.07;;;2.13;;
78549;SDS011;68091;52.130;5.570;2023-04-03T00:27:52;3.85;;;2.40;;
78549;SDS011;68091;52.130;5.570;2023-04-03T00:30:19;5.70;;;2.20;;
78549;SDS011;68091;52.130;5.570;2023-04-03T00:32:50;4.03;;;2.40;;
78549;SDS011;68091;52.130;5.570;2023-04-03T00:35:17;8.40;;;2.10;;
78549;SDS011;68091;52.130;5.570;2023-04-03T00:37:44;4.25;;;1.83;;
78549;SDS011;68091;52.130;5.570;2023-04-03T00:40:12;5.13;;;2.00;;
78549;SDS011;68091;52.130;5.570;2023-04-03T00:42:40;8.73;;;2.30;;
78549;SDS011;68091;52.130;5.570;2023-04-03T00:47:36;4.55;;;2.42;;
78549;SDS011;68091;52.130;5.570;2023-04-03T00:50:04;9.07;;;2.38;;
78549;SDS011;68091;52.130;5.570;2023-04-03T00:52:33;6.78;;;2.08;;
78549;SDS011;68091;52.130;5.570;2023-04-03T00:55:01;5.10;;;2.10;;
78549;SDS011;68091;52.130;5.570;2023-04-03T00:57:29;3.97;;;2.00;;
78549;SDS011;68091;52.130;5.570;2023-04-03T01:00:01;3.63;;;1.90;;
78549;SDS011;68091;52.130;5.570;2023-04-03T01:02:34;6.68;;;2.17;;
78549;SDS011;68091;52.130;5.570;2023-04-03T01:05:00;8.00;;;2.22;;
78549;SDS011;68091;52.130;5.570;2023-04-03T01:07:27;4.65;;;2.25;;
78549;SDS011;68091;52.130;5.570;2023-04-03T01:09:56;7.25;;;2.40;;
78549;SDS011;68091;52.130;5.570;2023-04-03T01:14:59;4.43;;;2.03;;
78549;SDS011;68091;52.130;5.570;2023-04-03T01:25:51;4.30;;;2.25;;
78549;SDS011;68091;52.130;5.570;2023-04-03T01:28:23;7.90;;;2.60;;
78549;SDS011;68091;52.130;5.570;2023-04-03T01:33:38;3.20;;;1.90;;
78549;SDS011;68091;52.130;5.570;2023-04-03T01:36:04;6.22;;;2.40;;
78549;SDS011;68091;52.130;5.570;2023-04-03T01:38:31;5.60;;;2.10;;
78549;SDS011;68091;52.130;5.570;2023-04-03T01:40:56;8.27;;;2.10;;
78549;SDS011;68091;52.130;5.570;2023-04-03T01:43:22;5.47;;;2.75;;
78549;SDS011;68091;52.130;5.570;2023-04-03T01:45:48;5.53;;;2.38;;
78549;SDS011;68091;52.130;5.570;2023-04-03T01:48:19;8.02;;;2.30;;
78549;SDS011;68091;52.130;5.570;2023-04-03T01:50:45;10.35;;;2.58;;
78549;SDS011;68091;52.130;5.570;2023-04-03T01:53:14;3.42;;;1.98;;
78549;SDS011;68091;52.130;5.570;2023-04-03T01:55:40;4.97;;;2.38;;
78549;SDS011;68091;52.130;5.570;2023-04-03T01:58:06;5.93;;;2.45;;
78549;SDS011;68091;52.130;5.570;2023-04-03T02:00:35;5.35;;;2.30;;
78549;SDS011;68091;52.130;5.570;2023-04-03T02:03:01;7.53;;;2.60;;
78549;SDS011;68091;52.130;5.570;2023-04-03T02:05:27;6.43;;;2.20;;
78549;SDS011;68091;52.130;5.570;2023-04-03T02:07:53;6.60;;;2.20;;
78549;SDS011;68091;52.130;5.570;2023-04-03T02:10:19;6.00;;;2.40;;
78549;SDS011;68091;52.130;5.570;2023-04-03T02:12:45;5.72;;;2.53;;
78549;SDS011;68091;52.130;5.570;2023-04-03T02:15:10;5.93;;;2.28;;
78549;SDS011;68091;52.130;5.570;2023-04-03T02:17:36;4.03;;;2.35;;
78549;SDS011;68091;52.130;5.570;2023-04-03T02:20:02;4.47;;;2.25;;
78549;SDS011;68091;52.130;5.570;2023-04-03T02:22:28;5.47;;;2.58;;
78549;SDS011;68091;52.130;5.570;2023-04-03T02:24:54;6.90;;;2.38;;
78549;SDS011;68091;52.130;5.570;2023-04-03T02:27:20;7.63;;;2.60;;
78549;SDS011;68091;52.130;5.570;2023-04-03T02:29:46;5.15;;;2.55;;
78549;SDS011;68091;52.130;5.570;2023-04-03T02:32:11;6.63;;;2.97;;
78549;SDS011;68091;52.130;5.570;2023-04-03T02:34:37;5.25;;;2.38;;
78549;SDS011;68091;52.130;5.570;2023-04-03T02:37:03;6.45;;;2.65;;
78549;SDS011;68091;52.130;5.570;2023-04-03T02:39:29;5.40;;;2.10;;
78549;SDS011;68091;52.130;5.570;2023-04-03T02:41:54;6.88;;;2.75;;
78549;SDS011;68091;52.130;5.570;2023-04-03T02:44:20;10.27;;;2.85;;
78549;SDS011;68091;52.130;5.570;2023-04-03T02:46:46;7.15;;;2.47;;
78549;SDS011;68091;52.130;5.570;2023-04-03T02:49:12;8.35;;;2.38;;
78549;SDS011;68091;52.130;5.570;2023-04-03T02:51:37;6.82;;;2.65;;
78549;SDS011;68091;52.130;5.570;2023-04-03T02:54:03;10.38;;;2.92;;
78549;SDS011;68091;52.130;5.570;2023-04-03T02:56:29;6.88;;;2.75;;
78549;SDS011;68091;52.130;5.570;2023-04-03T02:58:55;6.88;;;2.50;;
78549;SDS011;68091;52.130;5.570;2023-04-03T03:01:21;10.30;;;2.85;;
78549;SDS011;68091;52.130;5.570;2023-04-03T03:03:47;6.57;;;2.45;;
78549;SDS011;68091;52.130;5.570;2023-04-03T03:06:13;6.05;;;2.60;;
78549;SDS011;68091;52.130;5.570;2023-04-03T03:08:41;10.18;;;2.50;;
78549;SDS011;68091;52.130;5.570;2023-04-03T03:11:07;7.00;;;2.72;;
78549;SDS011;68091;52.130;5.570;2023-04-03T03:13:39;5.55;;;2.70;;
78549;SDS011;68091;52.130;5.570;2023-04-03T03:16:05;10.35;;;3.05;;
78549;SDS011;68091;52.130;5.570;2023-04-03T03:18:32;7.38;;;2.65;;
78549;SDS011;68091;52.130;5.570;2023-04-03T03:20:59;11.55;;;2.80;;
78549;SDS011;68091;52.130;5.570;2023-04-03T03:23:28;4.80;;;2.80;;
78549;SDS011;68091;52.130;5.570;2023-04-03T03:28:47;7.40;;;3.05;;
78549;SDS011;68091;52.130;5.570;2023-04-03T03:31:13;10.90;;;3.35;;
78549;SDS011;68091;52.130;5.570;2023-04-03T03:33:40;7.20;;;4.00;;
78549;SDS011;68091;52.130;5.570;2023-04-03T03:36:06;5.57;;;3.40;;
78549;SDS011;68091;52.130;5.570;2023-04-03T03:38:32;9.70;;;3.72;;
78549;SDS011;68091;52.130;5.570;2023-04-03T03:40:58;5.97;;;3.10;;
78549;SDS011;68091;52.130;5.570;2023-04-03T03:43:23;5.22;;;2.88;;
78549;SDS011;68091;52.130;5.570;2023-04-03T03:45:50;10.23;;;3.35;;
78549;SDS011;68091;52.130;5.570;2023-04-03T03:48:17;11.98;;;3.58;;
78549;SDS011;68091;52.130;5.570;2023-04-03T03:50:44;9.93;;;3.50;;
78549;SDS011;68091;52.130;5.570;2023-04-03T03:53:09;6.78;;;3.50;;
78549;SDS011;68091;52.130;5.570;2023-04-03T03:55:35;7.47;;;3.13;;
78549;SDS011;68091;52.130;5.570;2023-04-03T03:58:01;8.80;;;3.10;;
78549;SDS011;68091;52.130;5.570;2023-04-03T04:00:28;9.45;;;3.42;;
78549;SDS011;68091;52.130;5.570;2023-04-03T04:02:55;9.05;;;3.67;;
78549;SDS011;68091;52.130;5.570;2023-04-03T04:05:21;11.07;;;3.33;;
78549;SDS011;68091;52.130;5.570;2023-04-03T04:07:47;10.40;;;3.85;;
78549;SDS011;68091;52.130;5.570;2023-04-03T04:10:12;12.43;;;3.80;;
78549;SDS011;68091;52.130;5.570;2023-04-03T04:12:39;16.33;;;3.85;;
78549;SDS011;68091;52.130;5.570;2023-04-03T04:15:05;9.07;;;3.63;;
78549;SDS011;68091;52.130;5.570;2023-04-03T04:17:31;15.43;;;3.95;;
78549;SDS011;68091;52.130;5.570;2023-04-03T04:19:57;9.65;;;4.38;;
78549;SDS011;68091;52.130;5.570;2023-04-03T04:22:23;9.73;;;3.38;;
78549;SDS011;68091;52.130;5.570;2023-04-03T04:24:48;10.85;;;3.83;;
78549;SDS011;68091;52.130;5.570;2023-04-03T04:27:14;9.80;;;3.83;;
78549;SDS011;68091;52.130;5.570;2023-04-03T04:29:41;10.63;;;3.95;;
78549;SDS011;68091;52.130;5.570;2023-04-03T04:32:06;11.68;;;4.25;;
78549;SDS011;68091;52.130;5.570;2023-04-03T04:34:33;12.98;;;3.42;;
78549;SDS011;68091;52.130;5.570;2023-04-03T04:36:59;13.20;;;3.85;;
78549;SDS011;68091;52.130;5.570;2023-04-03T04:39:25;10.80;;;3.47;;
78549;SDS011;68091;52.130;5.570;2023-04-03T04:41:51;10.07;;;3.60;;
78549;SDS011;68091;52.130;5.570;2023-04-03T04:44:17;17.17;;;4.15;;
78549;SDS011;68091;52.130;5.570;2023-04-03T04:46:42;12.02;;;3.97;;
78549;SDS011;68091;52.130;5.570;2023-04-03T04:49:08;15.35;;;3.75;;
78549;SDS011;68091;52.130;5.570;2023-04-03T04:51:34;13.55;;;3.92;;
78549;SDS011;68091;52.130;5.570;2023-04-03T04:54:00;11.35;;;3.80;;
78549;SDS011;68091;52.130;5.570;2023-04-03T04:56:26;12.27;;;3.83;;
78549;SDS011;68091;52.130;5.570;2023-04-03T04:58:52;12.63;;;4.55;;
78549;SDS011;68091;52.130;5.570;2023-04-03T05:01:17;9.80;;;3.42;;
78549;SDS011;68091;52.130;5.570;2023-04-03T05:03:43;10.65;;;4.00;;
78549;SDS011;68091;52.130;5.570;2023-04-03T05:06:10;10.40;;;3.95;;
78549;SDS011;68091;52.130;5.570;2023-04-03T05:08:35;23.35;;;5.15;;
78549;SDS011;68091;52.130;5.570;2023-04-03T05:11:01;11.10;;;3.83;;
78549;SDS011;68091;52.130;5.570;2023-04-03T05:13:27;9.88;;;3.80;;
78549;SDS011;68091;52.130;5.570;2023-04-03T05:15:53;9.32;;;3.97;;
78549;SDS011;68091;52.130;5.570;2023-04-03T05:18:18;9.88;;;3.28;;
78549;SDS011;68091;52.130;5.570;2023-04-03T05:20:44;12.10;;;4.35;;
78549;SDS011;68091;52.130;5.570;2023-04-03T05:23:10;13.95;;;3.83;;
78549;SDS011;68091;52.130;5.570;2023-04-03T05:25:39;10.02;;;3.97;;
78549;SDS011;68091;52.130;5.570;2023-04-03T05:28:05;10.40;;;3.42;;
78549;SDS011;68091;52.130;5.570;2023-04-03T05:30:31;13.73;;;4.10;;
78549;SDS011;68091;52.130;5.570;2023-04-03T05:32:58;10.40;;;3.85;;
78549;SDS011;68091;52.130;5.570;2023-04-03T05:35:24;11.70;;;4.10;;
78549;SDS011;68091;52.130;5.570;2023-04-03T05:37:50;11.32;;;3.80;;
78549;SDS011;68091;52.130;5.570;2023-04-03T05:40:16;12.13;;;3.40;;
78549;SDS011;68091;52.130;5.570;2023-04-03T05:42:43;12.15;;;3.38;;
78549;SDS011;68091;52.130;5.570;2023-04-03T05:45:09;14.02;;;3.70;;
78549;SDS011;68091;52.130;5.570;2023-04-03T05:47:35;12.90;;;3.75;;
78549;SDS011;68091;52.130;5.570;2023-04-03T05:50:02;12.85;;;3.67;;
78549;SDS011;68091;52.130;5.570;2023-04-03T05:52:29;7.93;;;3.78;;
78549;SDS011;68091;52.130;5.570;2023-04-03T05:54:58;11.45;;;3.60;;
78549;SDS011;68091;52.130;5.570;2023-04-03T05:57:23;11.23;;;3.45;;
78549;SDS011;68091;52.130;5.570;2023-04-03T05:59:49;11.98;;;3.83;;
78549;SDS011;68091;52.130;5.570;2023-04-03T06:02:17;8.77;;;3.60;;
78549;SDS011;68091;52.130;5.570;2023-04-03T06:04:44;13.10;;;3.83;;
78549;SDS011;68091;52.130;5.570;2023-04-03T06:07:11;10.70;;;3.78;;
78549;SDS011;68091;52.130;5.570;2023-04-03T06:09:40;13.18;;;4.32;;
78549;SDS011;68091;52.130;5.570;2023-04-03T06:12:06;10.05;;;4.13;;
78549;SDS011;68091;52.130;5.570;2023-04-03T06:14:32;11.00;;;3.88;;
78549;SDS011;68091;52.130;5.570;2023-04-03T06:16:59;9.10;;;3.53;;
78549;SDS011;68091;52.130;5.570;2023-04-03T06:19:25;7.55;;;3.33;;
78549;SDS011;68091;52.130;5.570;2023-04-03T06:21:51;8.70;;;3.78;;
78549;SDS011;68091;52.130;5.570;2023-04-03T06:24:17;8.15;;;3.30;;
78549;SDS011;68091;52.130;5.570;2023-04-03T06:26:43;10.85;;;3.20;;
78549;SDS011;68091;52.130;5.570;2023-04-03T06:29:09;13.15;;;3.83;;
78549;SDS011;68091;52.130;5.570;2023-04-03T06:31:35;13.10;;;3.58;;
78549;SDS011;68091;52.130;5.570;2023-04-03T06:34:04;10.27;;;3.20;;
78549;SDS011;68091;52.130;5.570;2023-04-03T06:36:32;13.18;;;3.45;;
78549;SDS011;68091;52.130;5.570;2023-04-03T06:38:58;11.02;;;3.47;;
78549;SDS011;68091;52.130;5.570;2023-04-03T06:41:24;16.48;;;3.90;;
78549;SDS011;68091;52.130;5.570;2023-04-03T06:43:51;14.88;;;3.58;;
78549;SDS011;68091;52.130;5.570;2023-04-03T06:46:18;10.82;;;3.40;;
78549;SDS011;68091;52.130;5.570;2023-04-03T06:48:47;12.18;;;3.40;;
78549;SDS011;68091;52.130;5.570;2023-04-03T06:51:19;14.80;;;2.70;;
78549;SDS011;68091;52.130;5.570;2023-04-03T06:53:53;18.50;;;3.22;;
78549;SDS011;68091;52.130;5.570;2023-04-03T06:56:20;8.18;;;3.13;;
78549;SDS011;68091;52.130;5.570;2023-04-03T06:58:47;8.65;;;3.22;;
78549;SDS011;68091;52.130;5.570;2023-04-03T07:01:17;9.43;;;3.20;;
78549;SDS011;68091;52.130;5.570;2023-04-03T07:03:47;10.02;;;2.83;;
78549;SDS011;68091;52.130;5.570;2023-04-03T07:06:14;14.15;;;3.97;;
78549;SDS011;68091;52.130;5.570;2023-04-03T07:08:41;9.77;;;3.05;;
78549;SDS011;68091;52.130;5.570;2023-04-03T07:11:08;10.93;;;3.17;;
78549;SDS011;68091;52.130;5.570;2023-04-03T07:13:34;8.07;;;2.95;;
78549;SDS011;68091;52.130;5.570;2023-04-03T07:16:01;8.63;;;3.17;;
78549;SDS011;68091;52.130;5.570;2023-04-03T07:18:29;13.48;;;4.07;;
78549;SDS011;68091;52.130;5.570;2023-04-03T07:20:55;8.68;;;3.20;;
78549;SDS011;68091;52.130;5.570;2023-04-03T07:23:21;10.20;;;3.20;;
78549;SDS011;68091;52.130;5.570;2023-04-03T07:25:47;9.68;;;3.28;;
78549;SDS011;68091;52.130;5.570;2023-04-03T07:28:14;8.02;;;2.90;;
78549;SDS011;68091;52.130;5.570;2023-04-03T07:30:58;13.80;;;3.03;;
78549;SDS011;68091;52.130;5.570;2023-04-03T07:33:26;9.00;;;2.92;;
78549;SDS011;68091;52.130;5.570;2023-04-03T07:35:52;10.65;;;2.80;;
78549;SDS011;68091;52.130;5.570;2023-04-03T07:38:18;8.93;;;2.92;;
78549;SDS011;68091;52.130;5.570;2023-04-03T07:40:48;8.48;;;2.75;;
78549;SDS011;68091;52.130;5.570;2023-04-03T07:43:16;9.48;;;2.95;;
78549;SDS011;68091;52.130;5.570;2023-04-03T07:45:42;6.60;;;2.63;;
78549;SDS011;68091;52.130;5.570;2023-04-03T07:48:08;3.97;;;2.10;;
78549;SDS011;68091;52.130;5.570;2023-04-03T07:50:35;8.75;;;2.33;;
78549;SDS011;68091;52.130;5.570;2023-04-03T07:53:01;8.02;;;2.75;;
78549;SDS011;68091;52.130;5.570;2023-04-03T07:55:28;9.45;;;2.70;;
78549;SDS011;68091;52.130;5.570;2023-04-03T07:57:54;8.23;;;2.75;;
78549;SDS011;68091;52.130;5.570;2023-04-03T08:00:20;7.32;;;2.08;;
78549;SDS011;68091;52.130;5.570;2023-04-03T08:02:47;8.18;;;1.95;;
78549;SDS011;68091;52.130;5.570;2023-04-03T08:05:19;6.70;;;2.10;;
78549;SDS011;68091;52.130;5.570;2023-04-03T08:07:47;5.10;;;1.65;;
78549;SDS011;68091;52.130;5.570;2023-04-03T08:10:13;6.65;;;2.15;;
78549;SDS011;68091;52.130;5.570;2023-04-03T08:12:40;6.72;;;1.85;;
78549;SDS011;68091;52.130;5.570;2023-04-03T08:15:09;4.07;;;1.63;;
78549;SDS011;68091;52.130;5.570;2023-04-03T08:17:35;6.65;;;1.55;;
78549;SDS011;68091;52.130;5.570;2023-04-03T08:20:02;3.72;;;1.38;;
78549;SDS011;68091;52.130;5.570;2023-04-03T08:22:30;5.18;;;1.63;;
78549;SDS011;68091;52.130;5.570;2023-04-03T08:24:56;4.25;;;1.60;;
78549;SDS011;68091;52.130;5.570;2023-04-03T08:27:21;4.93;;;1.77;;
78549;SDS011;68091;52.130;5.570;2023-04-03T08:29:48;6.22;;;1.90;;
78549;SDS011;68091;52.130;5.570;2023-04-03T08:32:14;3.83;;;1.40;;
78549;SDS011;68091;52.130;5.570;2023-04-03T08:34:40;2.90;;;1.63;;
78549;SDS011;68091;52.130;5.570;2023-04-03T08:37:06;8.40;;;1.63;;
78549;SDS011;68091;52.130;5.570;2023-04-03T08:39:32;3.03;;;1.40;;
78549;SDS011;68091;52.130;5.570;2023-04-03T08:41:58;2.90;;;1.30;;
78549;SDS011;68091;52.130;5.570;2023-04-03T08:50:05;4.97;;;1.23;;
78549;SDS011;68091;52.130;5.570;2023-04-03T08:52:50;2.22;;;1.08;;
78549;SDS011;68091;52.130;5.570;2023-04-03T08:55:34;2.80;;;1.25;;
78549;SDS011;68091;52.130;5.570;2023-04-03T09:01:19;2.40;;;0.93;;
78549;SDS011;68091;52.130;5.570;2023-04-03T09:03:48;2.80;;;0.90;;
78549;SDS011;68091;52.130;5.570;2023-04-03T09:06:32;3.13;;;0.90;;
78549;SDS011;68091;52.130;5.570;2023-04-03T09:09:12;2.33;;;0.88;;
78549;SDS011;68091;52.130;5.570;2023-04-03T09:12:13;3.83;;;1.05;;
78549;SDS011;68091;52.130;5.570;2023-04-03T09:14:49;2.05;;;1.02;;
78549;SDS011;68091;52.130;5.570;2023-04-03T09:22:45;3.25;;;0.80;;
78549;SDS011;68091;52.130;5.570;2023-04-03T09:28:10;1.65;;;0.73;;
78549;SDS011;68091;52.130;5.570;2023-04-03T09:30:36;3.25;;;0.82;;
78549;SDS011;68091;52.130;5.570;2023-04-03T09:33:02;2.13;;;0.70;;
78549;SDS011;68091;52.130;5.570;2023-04-03T09:35:30;1.83;;;0.77;;
78549;SDS011;68091;52.130;5.570;2023-04-03T09:42:51;3.40;;;0.60;;
78549;SDS011;68091;52.130;5.570;2023-04-03T09:45:27;3.33;;;1.00;;
78549;SDS011;68091;52.130;5.570;2023-04-03T09:48:16;2.22;;;0.80;;
78549;SDS011;68091;52.130;5.570;2023-04-03T09:54:03;1.15;;;0.65;;
78549;SDS011;68091;52.130;5.570;2023-04-03T09:56:21;1.15;;;0.70;;
78549;SDS011;68091;52.130;5.570;2023-04-03T09:59:06;2.60;;;0.93;;
78549;SDS011;68091;52.130;5.570;2023-04-03T10:01:39;1.20;;;0.63;;
78549;SDS011;68091;52.130;5.570;2023-04-03T10:06:44;4.70;;;0.77;;
78549;SDS011;68091;52.130;5.570;2023-04-03T10:12:05;3.25;;;0.63;;
78549;SDS011;68091;52.130;5.570;2023-04-03T10:14:37;1.38;;;0.60;;
78549;SDS011;68091;52.130;5.570;2023-04-03T10:19:56;2.08;;;0.70;;
78549;SDS011;68091;52.130;5.570;2023-04-03T10:33:51;1.13;;;0.50;;
78549;SDS011;68091;52.130;5.570;2023-04-03T10:50:36;3.70;;;1.00;;
78549;SDS011;68091;52.130;5.570;2023-04-03T10:58:38;3.10;;;0.80;;
78549;SDS011;68091;52.130;5.570;2023-04-03T11:01:09;2.38;;;0.77;;
78549;SDS011;68091;52.130;5.570;2023-04-03T11:03:40;4.30;;;0.90;;
78549;SDS011;68091;52.130;5.570;2023-04-03T11:06:14;3.97;;;1.00;;
78549;SDS011;68091;52.130;5.570;2023-04-03T11:09:01;1.65;;;0.90;;
78549;SDS011;68091;52.130;5.570;2023-04-03T11:11:37;2.97;;;0.93;;
78549;SDS011;68091;52.130;5.570;2023-04-03T11:16:47;2.40;;;0.80;;
78549;SDS011;68091;52.130;5.570;2023-04-03T11:19:19;4.68;;;0.90;;
78549;SDS011;68091;52.130;5.570;2023-04-03T11:22:01;1.80;;;0.80;;
78549;SDS011;68091;52.130;5.570;2023-04-03T11:24:33;2.75;;;0.90;;
78549;SDS011;68091;52.130;5.570;2023-04-03T11:27:03;0.77;;;0.70;;
78549;SDS011;68091;52.130;5.570;2023-04-03T11:29:35;2.47;;;0.90;;
78549;SDS011;68091;52.130;5.570;2023-04-03T11:35:14;3.10;;;0.95;;
78549;SDS011;68091;52.130;5.570;2023-04-03T11:37:46;3.28;;;1.00;;
78549;SDS011;68091;52.130;5.570;2023-04-03T11:40:24;1.83;;;0.68;;
78549;SDS011;68091;52.130;5.570;2023-04-03T11:42:53;4.15;;;1.10;;
78549;SDS011;68091;52.130;5.570;2023-04-03T11:50:48;1.98;;;0.80;;
78549;SDS011;68091;52.130;5.570;2023-04-03T11:56:02;1.92;;;0.82;;
78549;SDS011;68091;52.130;5.570;2023-04-03T11:58:30;1.85;;;0.90;;
78549;SDS011;68091;52.130;5.570;2023-04-03T12:00:59;1.67;;;0.93;;
78549;SDS011;68091;52.130;5.570;2023-04-03T12:03:35;1.65;;;0.80;;
78549;SDS011;68091;52.130;5.570;2023-04-03T12:08:57;2.85;;;0.80;;
78549;SDS011;68091;52.130;5.570;2023-04-03T12:11:28;4.97;;;1.00;;
78549;SDS011;68091;52.130;5.570;2023-04-03T12:16:23;5.43;;;1.13;;
78549;SDS011;68091;52.130;5.570;2023-04-03T12:19:03;3.55;;;1.13;;
78549;SDS011;68091;52.130;5.570;2023-04-03T12:22:13;3.30;;;1.20;;
78549;SDS011;68091;52.130;5.570;2023-04-03T12:24:47;1.92;;;0.90;;
78549;SDS011;68091;52.130;5.570;2023-04-03T12:27:28;2.85;;;1.17;;
78549;SDS011;68091;52.130;5.570;2023-04-03T12:41:38;2.65;;;1.08;;
78549;SDS011;68091;52.130;5.570;2023-04-03T12:46:52;5.55;;;1.52;;
78549;SDS011;68091;52.130;5.570;2023-04-03T12:52:19;4.65;;;1.30;;
78549;SDS011;68091;52.130;5.570;2023-04-03T12:54:55;5.05;;;1.33;;
78549;SDS011;68091;52.130;5.570;2023-04-03T12:57:26;7.43;;;1.05;;
78549;SDS011;68091;52.130;5.570;2023-04-03T12:59:52;3.85;;;1.10;;
78549;SDS011;68091;52.130;5.570;2023-04-03T13:02:29;3.13;;;1.38;;
78549;SDS011;68091;52.130;5.570;2023-04-03T13:04:57;3.65;;;1.00;;
78549;SDS011;68091;52.130;5.570;2023-04-03T13:12:31;1.67;;;1.00;;
78549;SDS011;68091;52.130;5.570;2023-04-03T13:15:03;3.35;;;1.30;;
78549;SDS011;68091;52.130;5.570;2023-04-03T13:17:41;1.77;;;1.00;;
78549;SDS011;68091;52.130;5.570;2023-04-03T13:20:18;2.75;;;1.35;;
78549;SDS011;68091;52.130;5.570;2023-04-03T13:22:52;3.60;;;1.17;;
78549;SDS011;68091;52.130;5.570;2023-04-03T13:25:21;5.72;;;1.92;;
78549;SDS011;68091;52.130;5.570;2023-04-03T13:27:48;4.25;;;1.10;;
78549;SDS011;68091;52.130;5.570;2023-04-03T13:30:35;2.72;;;1.08;;
78549;SDS011;68091;52.130;5.570;2023-04-03T13:33:03;6.20;;;1.27;;
78549;SDS011;68091;52.130;5.570;2023-04-03T13:35:33;5.10;;;1.35;;
78549;SDS011;68091;52.130;5.570;2023-04-03T13:38:23;6.45;;;1.50;;
78549;SDS011;68091;52.130;5.570;2023-04-03T13:41:02;3.72;;;1.17;;
78549;SDS011;68091;52.130;5.570;2023-04-03T13:43:48;4.50;;;1.23;;
78549;SDS011;68091;52.130;5.570;2023-04-03T13:48:44;2.63;;;1.10;;
78549;SDS011;68091;52.130;5.570;2023-04-03T13:53:52;2.13;;;1.00;;
78549;SDS011;68091;52.130;5.570;2023-04-03T13:56:29;4.47;;;2.05;;
78549;SDS011;68091;52.130;5.570;2023-04-03T14:04:26;2.58;;;1.20;;
78549;SDS011;68091;52.130;5.570;2023-04-03T14:06:58;5.25;;;1.00;;
78549;SDS011;68091;52.130;5.570;2023-04-03T14:09:25;4.28;;;0.98;;
78549;SDS011;68091;52.130;5.570;2023-04-03T14:11:57;4.57;;;1.42;;
78549;SDS011;68091;52.130;5.570;2023-04-03T14:14:30;4.82;;;1.90;;
78549;SDS011;68091;52.130;5.570;2023-04-03T14:17:01;3.00;;;1.30;;
78549;SDS011;68091;52.130;5.570;2023-04-03T14:19:35;3.88;;;1.42;;
78549;SDS011;68091;52.130;5.570;2023-04-03T14:24:48;4.13;;;1.60;;
78549;SDS011;68091;52.130;5.570;2023-04-03T14:29:45;3.90;;;1.40;;
78549;SDS011;68091;52.130;5.570;2023-04-03T14:32:12;8.90;;;1.75;;
78549;SDS011;68091;52.130;5.570;2023-04-03T14:34:42;7.88;;;1.75;;
78549;SDS011;68091;52.130;5.570;2023-04-03T14:37:10;4.68;;;2.00;;
78549;SDS011;68091;52.130;5.570;2023-04-03T14:39:38;4.57;;;1.40;;
78549;SDS011;68091;52.130;5.570;2023-04-03T14:42:04;7.18;;;1.52;;
78549;SDS011;68091;52.130;5.570;2023-04-03T14:44:30;4.95;;;1.52;;
78549;SDS011;68091;52.130;5.570;2023-04-03T14:46:57;5.82;;;1.75;;
78549;SDS011;68091;52.130;5.570;2023-04-03T14:49:27;4.85;;;1.60;;
78549;SDS011;68091;52.130;5.570;2023-04-03T14:51:56;3.85;;;1.40;;
78549;SDS011;68091;52.130;5.570;2023-04-03T14:54:23;3.75;;;1.63;;
78549;SDS011;68091;52.130;5.570;2023-04-03T14:56:57;2.35;;;1.20;;
78549;SDS011;68091;52.130;5.570;2023-04-03T14:59:24;5.50;;;2.30;;
78549;SDS011;68091;52.130;5.570;2023-04-03T15:01:51;7.03;;;1.65;;
78549;SDS011;68091;52.130;5.570;2023-04-03T15:04:18;3.72;;;1.83;;
78549;SDS011;68091;52.130;5.570;2023-04-03T15:06:45;5.32;;;1.40;;
78549;SDS011;68091;52.130;5.570;2023-04-03T15:11:47;5.97;;;1.85;;
78549;SDS011;68091;52.130;5.570;2023-04-03T15:14:13;6.28;;;1.50;;
78549;SDS011;68091;52.130;5.570;2023-04-03T15:16:54;4.93;;;1.50;;
78549;SDS011;68091;52.130;5.570;2023-04-03T15:19:20;3.15;;;1.40;;
78549;SDS011;68091;52.130;5.570;2023-04-03T15:21:54;11.55;;;2.42;;
78549;SDS011;68091;52.130;5.570;2023-04-03T15:24:20;6.90;;;2.58;;
78549;SDS011;68091;52.130;5.570;2023-04-03T15:26:58;4.97;;;2.13;;
78549;SDS011;68091;52.130;5.570;2023-04-03T15:29:28;7.72;;;2.38;;
78549;SDS011;68091;52.130;5.570;2023-04-03T15:31:53;4.25;;;1.70;;
78549;SDS011;68091;52.130;5.570;2023-04-03T15:34:46;6.18;;;2.35;;
78549;SDS011;68091;52.130;5.570;2023-04-03T15:37:12;5.00;;;2.08;;
78549;SDS011;68091;52.130;5.570;2023-04-03T15:39:38;5.88;;;1.77;;
78549;SDS011;68091;52.130;5.570;2023-04-03T15:42:03;3.85;;;1.60;;
78549;SDS011;68091;52.130;5.570;2023-04-03T15:44:31;4.72;;;1.60;;
78549;SDS011;68091;52.130;5.570;2023-04-03T15:46:58;6.55;;;1.63;;
78549;SDS011;68091;52.130;5.570;2023-04-03T15:49:25;4.22;;;1.60;;
78549;SDS011;68091;52.130;5.570;2023-04-03T15:51:52;5.63;;;1.90;;
78549;SDS011;68091;52.130;5.570;2023-04-03T15:54:18;3.90;;;1.73;;
78549;SDS011;68091;52.130;5.570;2023-04-03T15:56:44;6.40;;;1.92;;
78549;SDS011;68091;52.130;5.570;2023-04-03T15:59:16;4.65;;;1.65;;
78549;SDS011;68091;52.130;5.570;2023-04-03T16:01:44;7.45;;;1.88;;
78549;SDS011;68091;52.130;5.570;2023-04-03T16:04:11;5.63;;;1.65;;
78549;SDS011;68091;52.130;5.570;2023-04-03T16:06:37;4.05;;;1.85;;
78549;SDS011;68091;52.130;5.570;2023-04-03T16:09:06;4.35;;;1.80;;
78549;SDS011;68091;52.130;5.570;2023-04-03T16:11:33;7.20;;;2.05;;
78549;SDS011;68091;52.130;5.570;2023-04-03T16:14:00;5.55;;;1.85;;
78549;SDS011;68091;52.130;5.570;2023-04-03T16:16:27;5.22;;;1.73;;
78549;SDS011;68091;52.130;5.570;2023-04-03T16:18:53;3.13;;;1.48;;
78549;SDS011;68091;52.130;5.570;2023-04-03T16:21:20;2.97;;;1.35;;
78549;SDS011;68091;52.130;5.570;2023-04-03T16:23:50;2.92;;;1.40;;
78549;SDS011;68091;52.130;5.570;2023-04-03T16:26:19;3.80;;;1.70;;
78549;SDS011;68091;52.130;5.570;2023-04-03T16:28:45;4.97;;;1.85;;
78549;SDS011;68091;52.130;5.570;2023-04-03T16:31:11;5.65;;;1.60;;
78549;SDS011;68091;52.130;5.570;2023-04-03T16:33:37;4.63;;;1.33;;
78549;SDS011;68091;52.130;5.570;2023-04-03T16:36:04;6.05;;;2.92;;
78549;SDS011;68091;52.130;5.570;2023-04-03T16:38:30;5.50;;;1.38;;
78549;SDS011;68091;52.130;5.570;2023-04-03T16:40:57;5.05;;;1.58;;
78549;SDS011;68091;52.130;5.570;2023-04-03T16:43:25;5.55;;;1.58;;
78549;SDS011;68091;52.130;5.570;2023-04-03T16:45:54;3.38;;;1.67;;
78549;SDS011;68091;52.130;5.570;2023-04-03T16:48:20;3.05;;;1.30;;
78549;SDS011;68091;52.130;5.570;2023-04-03T16:50:47;7.85;;;1.75;;
78549;SDS011;68091;52.130;5.570;2023-04-03T16:53:17;3.40;;;1.55;;
78549;SDS011;68091;52.130;5.570;2023-04-03T16:55:42;12.40;;;6.43;;
78549;SDS011;68091;52.130;5.570;2023-04-03T16:58:08;54.22;;;32.17;;
78549;SDS011;68091;52.130;5.570;2023-04-03T17:00:35;22.52;;;12.00;;
78549;SDS011;68091;52.130;5.570;2023-04-03T17:03:04;13.60;;;5.22;;
78549;SDS011;68091;52.130;5.570;2023-04-03T17:05:30;34.38;;;21.60;;
78549;SDS011;68091;52.130;5.570;2023-04-03T17:10:32;13.82;;;6.30;;
78549;SDS011;68091;52.130;5.570;2023-04-03T17:12:59;7.95;;;2.30;;
78549;SDS011;68091;52.130;5.570;2023-04-03T17:15:25;4.68;;;2.20;;
78549;SDS011;68091;52.130;5.570;2023-04-03T17:17:52;5.13;;;1.92;;
78549;SDS011;68091;52.130;5.570;2023-04-03T17:20:18;4.68;;;1.88;;